Time;durP1;ratioP1;P1;durP2;ratioP2;P2;SDS_P1;SDS_P2;PMS_P1;PMS_P2;Temp;Humidity;BMP_temperature;BMP_pressure;BME280_temperature;BME280_humidity;BME280_pressure;Samples;Min_cycle;Max_cycle;Signal;HPM_P1;HPM_P2
2022/01/17 00:01:34;;;;;;;;;;;-0.70;99.90;;;;;;4242408;27;20306;-56
2022/01/17 00:03:36;;;;;;;;;;;-0.80;99.90;;;;;;4232526;27;20464;-56
2022/01/17 00:05:38;;;;;;;;;;;-0.80;99.90;;;;;;4243082;27;19959;-56
2022/01/17 00:07:40;;;;;;;;;;;-0.70;99.90;;;;;;4236630;27;19932;-55
2022/01/17 00:09:43;;;;;;;;;;;-0.70;99.90;;;;;;4241629;27;20364;-56
2022/01/17 00:11:48;;;;;;;;;;;-0.80;99.90;;;;;;4235151;27;20341;-56
2022/01/17 00:13:50;;;;;;;;;;;-0.90;99.90;;;;;;4248165;27;19969;-56
2022/01/17 00:16:19;;;;;;;;;;;-1.00;99.90;;;;;;4235807;27;20292;-56
2022/01/17 00:20:25;;;;;;;;;;;-1.10;99.90;;;;;;4234814;27;19924;-55
2022/01/17 00:22:27;;;;;;;;;;;-1.00;99.90;;;;;;4227957;28;20435;-56
2022/01/17 00:24:28;;;;;;;;;;;-1.00;99.90;;;;;;4233965;27;19963;-55
2022/01/17 00:26:30;;;;;;;;;;;-1.00;99.90;;;;;;4242704;27;20462;-56
2022/01/17 00:28:33;;;;;;;;;;;-1.00;99.90;;;;;;4234321;27;19963;-55
2022/01/17 00:30:35;;;;;;;;;;;-1.00;99.90;;;;;;4233862;27;19962;-56
2022/01/17 00:32:37;;;;;;;;;;;-1.00;99.90;;;;;;4235989;27;19930;-56
2022/01/17 00:34:39;;;;;;;;;;;-0.90;99.90;;;;;;4240926;27;19923;-56
2022/01/17 00:36:41;;;;;;;;;;;-1.00;99.90;;;;;;4232984;27;19931;-56
2022/01/17 00:38:43;;;;;;;;;;;-1.10;99.90;;;;;;4240269;27;19928;-56
2022/01/17 00:40:45;;;;;;;;;;;-1.20;99.90;;;;;;4232404;27;19924;-56
2022/01/17 00:42:47;;;;;;;;;;;-1.10;99.90;;;;;;4228538;28;19934;-57
2022/01/17 00:44:49;;;;;;;;;;;-1.00;99.90;;;;;;4230068;28;19923;-56
2022/01/17 00:46:51;;;;;;;;;;;-1.00;99.90;;;;;;4236732;28;20019;-53
2022/01/17 00:48:53;;;;;;;;;;;-1.00;99.90;;;;;;4229349;28;20001;-55
2022/01/17 00:50:55;;;;;;;;;;;-0.90;99.90;;;;;;4242504;28;19924;-55
2022/01/17 00:53:02;;;;;;;;;;;-0.80;99.90;;;;;;4233847;28;20458;-56
2022/01/17 00:55:04;;;;;;;;;;;-0.90;99.90;;;;;;4241420;28;19938;-56
2022/01/17 00:57:06;;;;;;;;;;;-0.90;99.90;;;;;;4237152;28;20018;-56
2022/01/17 00:59:08;;;;;;;;;;;-0.90;99.90;;;;;;4241442;28;20022;-56
2022/01/17 01:01:10;;;;;;;;;;;-1.10;99.90;;;;;;4235707;28;20423;-56
2022/01/17 01:03:13;;;;;;;;;;;-1.00;99.90;;;;;;4241209;28;19985;-56
2022/01/17 01:05:16;;;;;;;;;;;-1.00;99.90;;;;;;4234631;28;19980;-56
2022/01/17 01:07:18;;;;;;;;;;;-1.00;99.90;;;;;;4240349;28;19967;-55
2022/01/17 01:09:20;;;;;;;;;;;-1.10;99.90;;;;;;4236119;28;19927;-56
2022/01/17 01:11:22;;;;;;;;;;;-1.10;99.90;;;;;;4239718;28;19967;-56
2022/01/17 01:13:28;;;;;;;;;;;-1.30;99.90;;;;;;4228757;28;20035;-56
2022/01/17 01:17:53;;;;;;;;;;;-1.40;99.90;;;;;;4237361;28;20022;-56
2022/01/17 01:20:04;;;;;;;;;;;-1.60;99.90;;;;;;4237371;28;19975;-56
2022/01/17 01:29:07;;;;;;;;;;;-1.40;99.90;;;;;;4232500;28;20002;-54
2022/01/17 01:31:15;;;;;;;;;;;-1.30;99.90;;;;;;4241704;28;20375;-55
2022/01/17 01:33:25;;;;;;;;;;;-1.20;99.90;;;;;;4234459;28;19924;-55
2022/01/17 01:35:29;;;;;;;;;;;-1.20;99.90;;;;;;4230120;27;20002;-56
2022/01/17 01:37:31;;;;;;;;;;;-1.10;99.90;;;;;;4239054;27;19923;-56
2022/01/17 01:39:33;;;;;;;;;;;-1.10;99.90;;;;;;4246395;27;20010;-56
2022/01/17 01:41:40;;;;;;;;;;;-1.10;99.90;;;;;;4230722;27;20298;-56
2022/01/17 01:43:42;;;;;;;;;;;-1.20;99.90;;;;;;4236764;27;20369;-56
2022/01/17 01:45:48;;;;;;;;;;;-1.10;99.90;;;;;;4231496;27;20345;-56
2022/01/17 01:47:50;;;;;;;;;;;-1.30;99.90;;;;;;4237980;27;19974;-56
2022/01/17 01:49:52;;;;;;;;;;;-1.30;99.90;;;;;;4241510;27;19974;-56
2022/01/17 01:51:54;;;;;;;;;;;-1.20;99.90;;;;;;4241275;27;20020;-55
2022/01/17 01:53:56;;;;;;;;;;;-1.30;99.90;;;;;;4241089;27;19927;-56
2022/01/17 01:55:58;;;;;;;;;;;-1.40;99.90;;;;;;4240911;27;20360;-56
2022/01/17 01:58:00;;;;;;;;;;;-1.30;99.90;;;;;;4240779;27;19923;-56
2022/01/17 02:00:05;;;;;;;;;;;-1.20;99.90;;;;;;4241674;27;20407;-56
2022/01/17 02:02:10;;;;;;;;;;;-1.40;99.90;;;;;;4240032;27;20295;-54
2022/01/17 02:04:13;;;;;;;;;;;-1.70;99.90;;;;;;4238011;27;20086;-57
2022/01/17 02:06:15;;;;;;;;;;;-1.80;99.90;;;;;;4241327;27;19933;-56
2022/01/17 02:08:17;;;;;;;;;;;-1.70;99.90;;;;;;4239936;27;19924;-57
2022/01/17 02:10:19;;;;;;;;;;;-1.60;99.90;;;;;;4241509;27;20379;-55
2022/01/17 02:12:22;;;;;;;;;;;-1.60;99.90;;;;;;4237557;27;20106;-56
2022/01/17 02:14:24;;;;;;;;;;;-1.50;99.90;;;;;;4241889;27;20337;-56
2022/01/17 02:16:26;;;;;;;;;;;-1.50;99.90;;;;;;4237631;27;19928;-55
2022/01/17 02:18:30;;;;;;;;;;;-1.40;99.90;;;;;;4236459;27;20018;-56
2022/01/17 02:22:58;;;;;;;;;;;-1.30;99.90;;;;;;4207864;28;19973;-57
2022/01/17 02:24:59;;;;;;;;;;;-1.30;99.90;;;;;;4233834;27;20419;-56
2022/01/17 02:27:01;;;;;;;;;;;-1.40;99.90;;;;;;4228924;28;19974;-55
2022/01/17 02:29:03;;;;;;;;;;;-1.40;99.90;;;;;;4234814;27;19934;-56
2022/01/17 02:31:06;;;;;;;;;;;-1.40;99.90;;;;;;4231429;27;19967;-56
2022/01/17 02:33:08;;;;;;;;;;;-1.40;99.90;;;;;;4232915;27;21265;-56
2022/01/17 02:35:11;;;;;;;;;;;-1.40;99.90;;;;;;4245730;27;19931;-56
2022/01/17 02:37:13;;;;;;;;;;;-1.50;99.90;;;;;;4234398;27;19959;-56
2022/01/17 02:39:15;;;;;;;;;;;-1.50;99.90;;;;;;4228919;28;20475;-56
2022/01/17 02:41:18;;;;;;;;;;;-1.40;99.90;;;;;;4235075;27;19930;-56
2022/01/17 02:43:22;;;;;;;;;;;-1.30;99.90;;;;;;4231092;27;19976;-57
2022/01/17 02:46:24;;;;;;;;;;;-1.40;99.90;;;;;;4234403;27;20304;-57
2022/01/17 02:48:00;;;;;;;;;;;-1.50;99.90;;;;;;4235020;27;20340;-56
2022/01/17 02:50:02;;;;;;;;;;;-1.80;99.90;;;;;;4231760;27;19985;-56
2022/01/17 02:52:04;;;;;;;;;;;-1.90;99.90;;;;;;4244788;27;19973;-56
2022/01/17 02:54:06;;;;;;;;;;;-2.00;99.90;;;;;;4229681;27;19978;-53
2022/01/17 02:56:09;;;;;;;;;;;-2.10;99.90;;;;;;4232073;27;20272;-55
2022/01/17 02:58:11;;;;;;;;;;;-2.00;99.90;;;;;;4235947;27;20030;-56
2022/01/17 03:00:14;;;;;;;;;;;-2.00;99.90;;;;;;4233834;27;20002;-56
2022/01/17 03:02:15;;;;;;;;;;;-2.10;99.90;;;;;;4238855;27;19927;-55
2022/01/17 03:04:18;;;;;;;;;;;-2.20;99.90;;;;;;4233756;27;19927;-56
2022/01/17 03:06:20;;;;;;;;;;;-2.10;99.90;;;;;;4238179;27;20395;-56
2022/01/17 03:08:23;;;;;;;;;;;-2.00;99.90;;;;;;4233723;27;20423;-55
2022/01/17 03:10:39;;;;;;;;;;;-2.00;99.90;;;;;;4229194;27;20328;-56
2022/01/17 03:12:41;;;;;;;;;;;-2.00;99.90;;;;;;4234917;27;19932;-55
2022/01/17 03:14:43;;;;;;;;;;;-2.00;99.90;;;;;;4228126;28;19928;-56
2022/01/17 03:16:48;;;;;;;;;;;-2.10;99.90;;;;;;4232928;27;19928;-56
2022/01/17 03:18:50;;;;;;;;;;;-2.10;99.90;;;;;;4220762;28;20389;-55
2022/01/17 03:20:52;;;;;;;;;;;-2.10;99.90;;;;;;4240375;27;19924;-56
2022/01/17 03:22:55;;;;;;;;;;;-2.00;99.90;;;;;;4240028;27;19977;-55
2022/01/17 03:24:57;;;;;;;;;;;-2.00;99.90;;;;;;4235705;27;19924;-56
2022/01/17 03:26:58;;;;;;;;;;;-1.90;99.90;;;;;;4212142;28;20383;-55
2022/01/17 03:29:02;;;;;;;;;;;-1.90;99.90;;;;;;4230734;27;19935;-55
2022/01/17 03:31:04;;;;;;;;;;;-1.90;99.90;;;;;;4241597;27;20006;-56
2022/01/17 03:33:08;;;;;;;;;;;-1.90;99.90;;;;;;4238314;27;20071;-56
2022/01/17 03:35:11;;;;;;;;;;;-1.80;99.90;;;;;;4232719;27;19931;-56
2022/01/17 03:37:13;;;;;;;;;;;-1.90;99.90;;;;;;4239547;27;19963;-55
2022/01/17 03:39:15;;;;;;;;;;;-1.90;99.90;;;;;;4238587;27;19930;-55
2022/01/17 03:41:17;;;;;;;;;;;-2.00;99.90;;;;;;4231473;27;19966;-56
2022/01/17 03:43:20;;;;;;;;;;;-2.10;99.90;;;;;;4241408;27;19963;-55
2022/01/17 03:45:21;;;;;;;;;;;-2.10;99.90;;;;;;4228004;27;19923;-56
2022/01/17 03:47:23;;;;;;;;;;;-2.10;99.90;;;;;;4243179;27;20414;-55
2022/01/17 03:49:25;;;;;;;;;;;-2.00;99.90;;;;;;4235810;27;20003;-55
2022/01/17 03:51:27;;;;;;;;;;;-2.00;99.90;;;;;;4236156;27;20415;-56
2022/01/17 03:53:29;;;;;;;;;;;-2.10;99.90;;;;;;4239946;27;19966;-54
2022/01/17 03:55:33;;;;;;;;;;;-2.10;99.90;;;;;;4228174;27;20027;-56
2022/01/17 03:57:35;;;;;;;;;;;-1.90;99.90;;;;;;4234163;27;19967;-56
2022/01/17 03:59:37;;;;;;;;;;;-1.80;99.90;;;;;;4227580;28;19970;-57
2022/01/17 04:01:40;;;;;;;;;;;-1.80;99.90;;;;;;4232277;27;19923;-56
2022/01/17 04:03:42;;;;;;;;;;;-1.80;99.90;;;;;;4230718;27;19981;-55
2022/01/17 04:05:44;;;;;;;;;;;-1.80;99.90;;;;;;4233751;27;19930;-56
2022/01/17 04:07:46;;;;;;;;;;;-1.90;99.90;;;;;;4240172;27;20401;-56
2022/01/17 04:09:48;;;;;;;;;;;-1.80;99.90;;;;;;4233574;27;20650;-56
2022/01/17 04:11:50;;;;;;;;;;;-1.80;99.90;;;;;;4242992;27;20022;-55
2022/01/17 04:13:52;;;;;;;;;;;-1.70;99.90;;;;;;4234530;27;19935;-56
2022/01/17 04:15:54;;;;;;;;;;;-1.70;99.90;;;;;;4227577;28;20014;-55
2022/01/17 04:17:56;;;;;;;;;;;-1.70;99.90;;;;;;4229887;27;20367;-54
2022/01/17 04:20:07;;;;;;;;;;;-1.70;99.90;;;;;;4238340;27;19979;-55
2022/01/17 04:22:10;;;;;;;;;;;-1.70;99.90;;;;;;4232804;27;20015;-55
2022/01/17 04:24:13;;;;;;;;;;;-1.80;99.90;;;;;;4242668;27;19923;-56
2022/01/17 04:26:15;;;;;;;;;;;-1.70;99.90;;;;;;4234124;27;19931;-55
2022/01/17 04:28:17;;;;;;;;;;;-1.70;99.90;;;;;;4244277;27;20391;-56
2022/01/17 04:30:19;;;;;;;;;;;-1.60;99.90;;;;;;4232920;27;19966;-57
2022/01/17 04:32:21;;;;;;;;;;;-1.70;99.90;;;;;;4243774;27;20060;-56
2022/01/17 04:34:23;;;;;;;;;;;-1.80;99.90;;;;;;4231578;27;20390;-56
2022/01/17 04:36:28;;;;;;;;;;;-1.80;99.90;;;;;;4218670;28;20418;-56
2022/01/17 04:38:40;;;;;;;;;;;-1.70;99.90;;;;;;4232900;27;19981;-55
2022/01/17 04:40:45;;;;;;;;;;;-1.80;99.90;;;;;;4236000;28;20022;-56
2022/01/17 04:42:49;;;;;;;;;;;-1.90;99.90;;;;;;4233216;27;19970;-55
2022/01/17 04:45:11;;;;;;;;;;;-2.00;99.90;;;;;;4242460;27;19978;-55
2022/01/17 04:47:12;;;;;;;;;;;-2.00;99.90;;;;;;4210553;28;19987;-56
2022/01/17 04:49:14;;;;;;;;;;;-1.90;99.90;;;;;;4231874;28;20332;-55
2022/01/17 04:51:16;;;;;;;;;;;-2.00;99.90;;;;;;4239000;28;19931;-55
2022/01/17 04:53:20;;;;;;;;;;;-2.10;99.90;;;;;;4233544;28;20435;-57
2022/01/17 04:55:23;;;;;;;;;;;-2.10;99.90;;;;;;4237158;28;20006;-56
2022/01/17 04:57:25;;;;;;;;;;;-2.00;99.90;;;;;;4237547;28;20014;-56
2022/01/17 04:59:29;;;;;;;;;;;-2.00;99.90;;;;;;4229955;28;19924;-57
2022/01/17 05:01:31;;;;;;;;;;;-2.00;99.90;;;;;;4229011;28;19928;-55
2022/01/17 05:03:33;;;;;;;;;;;-1.90;99.90;;;;;;4238348;28;19976;-56
2022/01/17 05:05:35;;;;;;;;;;;-1.90;99.90;;;;;;4239879;28;20499;-56
2022/01/17 05:07:37;;;;;;;;;;;-1.80;99.90;;;;;;4234850;28;20026;-56
2022/01/17 05:09:41;;;;;;;;;;;-1.90;99.90;;;;;;4239828;28;19932;-57
2022/01/17 05:11:43;;;;;;;;;;;-2.00;99.90;;;;;;4233127;27;19978;-57
2022/01/17 05:13:48;;;;;;;;;;;-2.00;99.90;;;;;;4236134;27;19966;-55
2022/01/17 05:16:06;;;;;;;;;;;-2.00;99.90;;;;;;4233492;27;20092;-57
2022/01/17 05:20:13;;;;;;;;;;;-2.20;99.90;;;;;;4238125;27;19930;-56
2022/01/17 05:22:16;;;;;;;;;;;-2.20;99.90;;;;;;4236537;27;20010;-56
2022/01/17 05:24:18;;;;;;;;;;;-2.10;99.90;;;;;;4245531;27;19931;-55
2022/01/17 05:26:20;;;;;;;;;;;-2.10;99.90;;;;;;4239019;27;19924;-56
2022/01/17 05:28:22;;;;;;;;;;;-2.10;99.90;;;;;;4230041;28;20388;-56
2022/01/17 05:30:24;;;;;;;;;;;-2.10;99.90;;;;;;4233869;27;19928;-56
2022/01/17 05:32:26;;;;;;;;;;;-2.10;99.90;;;;;;4236117;27;20026;-57
2022/01/17 05:34:28;;;;;;;;;;;-2.10;99.90;;;;;;4235392;27;20019;-56
2022/01/17 05:36:30;;;;;;;;;;;-2.00;99.90;;;;;;4245806;27;19930;-56
2022/01/17 05:38:32;;;;;;;;;;;-1.90;99.90;;;;;;4238589;27;20018;-55
2022/01/17 05:40:34;;;;;;;;;;;-1.90;99.90;;;;;;4225025;28;19931;-57
2022/01/17 05:42:36;;;;;;;;;;;-1.90;99.90;;;;;;4233728;27;19931;-57
2022/01/17 05:44:38;;;;;;;;;;;-1.80;99.90;;;;;;4241068;27;19927;-55
2022/01/17 05:46:40;;;;;;;;;;;-1.80;99.90;;;;;;4234955;27;20002;-55
2022/01/17 05:48:42;;;;;;;;;;;-1.70;99.90;;;;;;4238264;27;19973;-56
2022/01/17 05:50:44;;;;;;;;;;;-1.80;99.90;;;;;;4237105;27;19934;-55
2022/01/17 05:52:45;;;;;;;;;;;-1.80;99.90;;;;;;4237101;27;19975;-56
2022/01/17 05:54:48;;;;;;;;;;;-1.60;99.90;;;;;;4233721;27;20410;-56
2022/01/17 05:56:50;;;;;;;;;;;-1.50;99.90;;;;;;4227140;27;19971;-56
2022/01/17 05:58:52;;;;;;;;;;;-1.50;99.90;;;;;;4239490;27;20601;-56
2022/01/17 06:00:54;;;;;;;;;;;-1.60;99.90;;;;;;4241971;27;20344;-56
2022/01/17 06:02:56;;;;;;;;;;;-1.70;99.90;;;;;;4239025;27;19932;-56
2022/01/17 06:04:58;;;;;;;;;;;-1.60;99.90;;;;;;4242712;27;20022;-57
2022/01/17 06:07:00;;;;;;;;;;;-1.70;99.90;;;;;;4239237;27;19924;-56
2022/01/17 06:09:02;;;;;;;;;;;-1.80;99.90;;;;;;4229357;27;19927;-57
2022/01/17 06:11:04;;;;;;;;;;;-1.80;99.90;;;;;;4231830;27;20024;-56
2022/01/17 06:13:06;;;;;;;;;;;-1.80;99.90;;;;;;4231245;27;19978;-56
2022/01/17 06:15:08;;;;;;;;;;;-1.80;99.90;;;;;;4232488;27;19924;-56
2022/01/17 06:17:10;;;;;;;;;;;-1.80;99.90;;;;;;4232300;27;20034;-56
2022/01/17 06:19:12;;;;;;;;;;;-1.80;99.90;;;;;;4236155;27;20541;-56
2022/01/17 06:21:14;;;;;;;;;;;-1.80;99.90;;;;;;4237741;27;19950;-55
2022/01/17 06:23:16;;;;;;;;;;;-1.70;99.90;;;;;;4218745;27;20191;-57
2022/01/17 06:25:18;;;;;;;;;;;-1.80;99.90;;;;;;4235592;27;20014;-50
2022/01/17 06:27:20;;;;;;;;;;;-1.80;99.90;;;;;;4240727;27;20401;-51
2022/01/17 06:29:22;;;;;;;;;;;-1.80;99.90;;;;;;4231762;27;19972;-50
2022/01/17 06:31:24;;;;;;;;;;;-1.70;99.90;;;;;;4237472;27;20403;-50
2022/01/17 06:33:26;;;;;;;;;;;-1.80;99.90;;;;;;4214101;27;20023;-49
2022/01/17 06:35:28;;;;;;;;;;;-1.80;99.90;;;;;;4240865;27;20474;-49
2022/01/17 06:37:30;;;;;;;;;;;-1.90;99.90;;;;;;4231433;27;19974;-49
2022/01/17 06:39:32;;;;;;;;;;;-2.00;99.90;;;;;;4230388;27;19938;-49
2022/01/17 06:41:34;;;;;;;;;;;-2.00;99.90;;;;;;4229463;27;19969;-51
2022/01/17 06:43:36;;;;;;;;;;;-1.90;99.90;;;;;;4231944;27;19927;-49
2022/01/17 06:45:38;;;;;;;;;;;-1.90;99.90;;;;;;4236321;27;19930;-49
2022/01/17 06:47:41;;;;;;;;;;;-1.80;99.90;;;;;;4245291;27;19931;-51
2022/01/17 06:49:43;;;;;;;;;;;-1.80;99.90;;;;;;4234369;27;20410;-51
2022/01/17 06:51:45;;;;;;;;;;;-1.90;99.90;;;;;;4243571;27;20634;-51
2022/01/17 06:53:48;;;;;;;;;;;-1.90;99.90;;;;;;4237797;27;19927;-50
2022/01/17 06:55:50;;;;;;;;;;;-1.90;99.90;;;;;;4243997;27;20161;-52
2022/01/17 06:57:52;;;;;;;;;;;-1.90;99.90;;;;;;4237237;27;19962;-53
2022/01/17 06:59:55;;;;;;;;;;;-1.90;99.90;;;;;;4236921;27;20399;-51
2022/01/17 07:01:57;;;;;;;;;;;-1.90;99.90;;;;;;4234468;27;19979;-52
2022/01/17 07:03:59;;;;;;;;;;;-1.90;99.90;;;;;;4245438;27;19923;-49
2022/01/17 07:06:05;;;;;;;;;;;-1.90;99.90;;;;;;4236248;27;19932;-49
2022/01/17 07:08:07;;;;;;;;;;;-1.90;99.90;;;;;;4239042;27;19938;-52
2022/01/17 07:10:09;;;;;;;;;;;-1.90;99.90;;;;;;4236153;27;20530;-51
2022/01/17 07:12:11;;;;;;;;;;;-1.90;99.90;;;;;;4234274;27;19948;-51
2022/01/17 07:14:13;;;;;;;;;;;-1.90;99.90;;;;;;4233309;27;20451;-52
2022/01/17 07:16:15;;;;;;;;;;;-1.90;99.90;;;;;;4229951;27;19963;-52
2022/01/17 07:18:17;;;;;;;;;;;-1.80;99.90;;;;;;4233198;27;19934;-50
2022/01/17 07:20:21;;;;;;;;;;;-1.90;99.90;;;;;;4209996;28;19931;-52
2022/01/17 07:22:23;;;;;;;;;;;-1.90;99.90;;;;;;4231085;27;19963;-49
2022/01/17 07:24:25;;;;;;;;;;;-1.80;99.90;;;;;;4224400;28;19928;-49
2022/01/17 07:26:27;;;;;;;;;;;-1.80;99.90;;;;;;4233693;27;19972;-50
2022/01/17 07:28:29;;;;;;;;;;;-1.80;99.90;;;;;;4237728;27;19924;-51
2022/01/17 07:30:31;;;;;;;;;;;-1.80;99.90;;;;;;4236642;27;19924;-52
2022/01/17 07:32:33;;;;;;;;;;;-1.80;99.90;;;;;;4235584;27;20015;-51
2022/01/17 07:34:35;;;;;;;;;;;-1.90;99.90;;;;;;4238661;27;19946;-51
2022/01/17 07:36:37;;;;;;;;;;;-1.90;99.90;;;;;;4240132;27;19954;-52
2022/01/17 07:38:39;;;;;;;;;;;-1.90;99.90;;;;;;4237541;27;19927;-53
2022/01/17 07:40:43;;;;;;;;;;;-1.80;99.90;;;;;;4235622;27;19962;-52
2022/01/17 07:42:45;;;;;;;;;;;-1.80;99.90;;;;;;4233764;27;19974;-52
2022/01/17 07:44:53;;;;;;;;;;;-1.80;99.90;;;;;;4241664;27;19931;-51
2022/01/17 07:46:58;;;;;;;;;;;-1.70;99.90;;;;;;4237620;27;19931;-49
2022/01/17 07:49:10;;;;;;;;;;;-1.70;99.90;;;;;;4239605;27;19924;-51
2022/01/17 07:51:12;;;;;;;;;;;-1.70;99.90;;;;;;4235937;27;19923;-52
2022/01/17 07:53:16;;;;;;;;;;;-1.70;99.90;;;;;;4220834;28;19927;-52
2022/01/17 07:55:19;;;;;;;;;;;-1.80;99.90;;;;;;4235531;27;20380;-52
2022/01/17 07:57:21;;;;;;;;;;;-1.70;99.90;;;;;;4238801;27;19931;-52
2022/01/17 07:59:23;;;;;;;;;;;-1.70;99.90;;;;;;4238321;27;19928;-51
2022/01/17 08:01:25;;;;;;;;;;;-1.60;99.90;;;;;;4228991;27;19928;-49
2022/01/17 08:03:27;;;;;;;;;;;-1.60;99.90;;;;;;4232192;27;19932;-53
2022/01/17 08:05:29;;;;;;;;;;;-1.70;99.90;;;;;;4231245;27;20398;-51
2022/01/17 08:07:31;;;;;;;;;;;-1.70;99.90;;;;;;4239405;27;20366;-52
2022/01/17 08:09:33;;;;;;;;;;;-1.70;99.90;;;;;;4239890;27;19927;-53
2022/01/17 08:11:39;;;;;;;;;;;-1.70;99.90;;;;;;4238625;27;20463;-52
2022/01/17 08:13:42;;;;;;;;;;;-1.60;99.90;;;;;;4237643;27;20414;-51
2022/01/17 08:15:45;;;;;;;;;;;-1.70;99.90;;;;;;4240119;27;21299;-52
2022/01/17 08:17:47;;;;;;;;;;;-1.70;99.90;;;;;;4235383;27;19967;-52
2022/01/17 08:19:49;;;;;;;;;;;-1.60;99.90;;;;;;4234362;27;20616;-53
2022/01/17 08:21:54;;;;;;;;;;;-1.50;99.90;;;;;;4229592;27;20036;-53
2022/01/17 08:23:57;;;;;;;;;;;-1.60;99.90;;;;;;4241371;27;19955;-54
2022/01/17 08:25:59;;;;;;;;;;;-1.70;99.90;;;;;;4227945;27;19947;-52
2022/01/17 08:28:02;;;;;;;;;;;-1.70;99.90;;;;;;4228318;27;19970;-52
2022/01/17 08:30:04;;;;;;;;;;;-1.70;99.90;;;;;;4236183;27;19935;-53
2022/01/17 08:32:29;;;;;;;;;;;-1.60;99.90;;;;;;4232152;27;19924;-54
2022/01/17 08:34:32;;;;;;;;;;;-1.50;99.90;;;;;;4237271;27;19923;-53
2022/01/17 08:36:33;;;;;;;;;;;-1.50;99.90;;;;;;4238267;28;19927;-52
2022/01/17 08:38:35;;;;;;;;;;;-1.50;99.90;;;;;;4234863;27;20015;-53
2022/01/17 08:40:37;;;;;;;;;;;-1.40;99.90;;;;;;4242180;27;19981;-53
2022/01/17 08:42:39;;;;;;;;;;;-1.50;99.90;;;;;;4229487;28;20623;-54
2022/01/17 08:44:49;;;;;;;;;;;-1.70;99.90;;;;;;4230741;27;19967;-53
2022/01/17 08:46:51;;;;;;;;;;;-1.60;99.90;;;;;;4234974;27;19933;-53
2022/01/17 08:48:53;;;;;;;;;;;-1.50;99.90;;;;;;4241420;28;19928;-54
2022/01/17 08:50:55;;;;;;;;;;;-1.30;99.90;;;;;;4232353;28;20025;-53
2022/01/17 08:52:57;;;;;;;;;;;-1.30;99.90;;;;;;4242093;28;19934;-52
2022/01/17 08:54:59;;;;;;;;;;;-1.30;99.90;;;;;;4231881;28;19927;-53
2022/01/17 08:57:02;;;;;;;;;;;-1.30;99.90;;;;;;4228395;28;19989;-53
2022/01/17 08:59:04;;;;;;;;;;;-1.40;99.90;;;;;;4234270;28;19927;-52
2022/01/17 09:01:06;;;;;;;;;;;-1.20;99.90;;;;;;4241711;28;19923;-54
2022/01/17 09:03:08;;;;;;;;;;;-1.10;99.90;;;;;;4228909;28;19939;-53
2022/01/17 09:05:12;;;;;;;;;;;-1.00;99.90;;;;;;4243505;28;20022;-51
2022/01/17 09:07:15;;;;;;;;;;;-1.30;99.90;;;;;;4230189;28;19934;-53
2022/01/17 09:09:17;;;;;;;;;;;-1.20;99.90;;;;;;4227518;28;19974;-52
2022/01/17 09:11:19;;;;;;;;;;;-1.20;99.90;;;;;;4233400;28;19927;-52
2022/01/17 09:13:23;;;;;;;;;;;-1.10;99.90;;;;;;4241697;28;19970;-54
2022/01/17 09:15:25;;;;;;;;;;;-1.10;99.90;;;;;;4232326;28;20303;-52
2022/01/17 09:17:27;;;;;;;;;;;-1.00;99.90;;;;;;4239692;28;19938;-53
2022/01/17 09:19:29;;;;;;;;;;;-1.10;99.90;;;;;;4217663;28;20451;-52
2022/01/17 09:21:31;;;;;;;;;;;-1.00;99.90;;;;;;4242947;28;19923;-52
2022/01/17 09:23:33;;;;;;;;;;;-1.00;99.90;;;;;;4231760;28;20013;-52
2022/01/17 09:25:35;;;;;;;;;;;-1.00;99.90;;;;;;4243955;28;19976;-52
2022/01/17 09:27:37;;;;;;;;;;;-0.80;99.90;;;;;;4230636;28;20026;-51
2022/01/17 09:29:39;;;;;;;;;;;-0.70;99.90;;;;;;4243430;28;19950;-52
2022/01/17 09:31:41;;;;;;;;;;;-0.50;99.90;;;;;;4231950;28;20490;-53
2022/01/17 09:33:43;;;;;;;;;;;-0.40;99.90;;;;;;4226298;28;19986;-53
2022/01/17 09:35:45;;;;;;;;;;;-0.30;99.90;;;;;;4231922;28;19934;-52
2022/01/17 09:37:48;;;;;;;;;;;-0.30;99.90;;;;;;4242270;28;19932;-53
2022/01/17 09:39:50;;;;;;;;;;;-0.20;99.90;;;;;;4232384;28;20380;-52
2022/01/17 09:41:52;;;;;;;;;;;-0.10;99.90;;;;;;4232917;28;20427;-52
2022/01/17 09:43:54;;;;;;;;;;;0.00;99.90;;;;;;4216392;28;20269;-52
2022/01/17 09:45:57;;;;;;;;;;;0.10;99.90;;;;;;4238084;28;19924;-52
2022/01/17 09:48:01;;;;;;;;;;;0.20;99.90;;;;;;4231137;28;20010;-53
2022/01/17 09:50:06;;;;;;;;;;;0.20;99.90;;;;;;4228140;28;19931;-52
2022/01/17 09:54:31;;;;;;;;;;;0.10;99.90;;;;;;4242958;28;19927;-52
2022/01/17 09:56:34;;;;;;;;;;;0.20;99.90;;;;;;4233540;27;19924;-52
2022/01/17 09:58:37;;;;;;;;;;;0.20;99.90;;;;;;4240266;27;20031;-51
2022/01/17 10:00:41;;;;;;;;;;;0.20;99.90;;;;;;4236150;27;20969;-53
2022/01/17 10:02:43;;;;;;;;;;;0.50;99.90;;;;;;4246371;27;20452;-51
2022/01/17 10:04:46;;;;;;;;;;;0.70;99.90;;;;;;4234243;27;19930;-53
2022/01/17 10:06:55;;;;;;;;;;;0.90;99.90;;;;;;4229202;28;20027;-53
2022/01/17 10:09:08;;;;;;;;;;;0.90;99.90;;;;;;4234627;27;19952;-53
2022/01/17 10:11:15;;;;;;;;;;;0.90;99.90;;;;;;4246294;27;19961;-52
2022/01/17 10:13:20;;;;;;;;;;;0.70;99.90;;;;;;4236774;27;19965;-53
2022/01/17 10:15:33;;;;;;;;;;;0.70;99.90;;;;;;4229124;28;19931;-52
2022/01/17 10:17:42;;;;;;;;;;;0.80;99.90;;;;;;4235316;27;20022;-54
2022/01/17 10:19:45;;;;;;;;;;;1.00;99.90;;;;;;4244684;27;20030;-51
2022/01/17 10:21:51;;;;;;;;;;;1.20;99.90;;;;;;4234495;27;19937;-52
2022/01/17 10:35:19;;;;;;;;;;;1.40;99.90;;;;;;4236247;27;19963;-51
2022/01/17 10:37:23;;;;;;;;;;;1.40;99.90;;;;;;4237208;27;20093;-53
2022/01/17 10:39:25;;;;;;;;;;;1.40;99.90;;;;;;4236938;27;19942;-52
2022/01/17 10:41:27;;;;;;;;;;;1.50;99.90;;;;;;4234429;27;20043;-53
2022/01/17 10:43:34;;;;;;;;;;;1.50;99.90;;;;;;4237125;27;19923;-53
2022/01/17 10:45:38;;;;;;;;;;;1.70;99.90;;;;;;4238707;27;19923;-52
2022/01/17 10:47:43;;;;;;;;;;;1.70;99.90;;;;;;4229867;27;19924;-51
2022/01/17 10:49:54;;;;;;;;;;;1.70;99.90;;;;;;4238644;27;19924;-53
2022/01/17 10:51:59;;;;;;;;;;;1.80;99.90;;;;;;4236980;27;20024;-52
2022/01/17 10:54:15;;;;;;;;;;;1.80;99.90;;;;;;4241043;27;23520;-53
2022/01/17 10:56:17;;;;;;;;;;;1.80;99.90;;;;;;4240463;27;20280;-52
2022/01/17 10:58:25;;;;;;;;;;;1.90;99.90;;;;;;4240774;27;20015;-52
2022/01/17 11:00:28;;;;;;;;;;;2.00;99.90;;;;;;4242260;27;20332;-52
2022/01/17 11:02:30;;;;;;;;;;;2.00;99.90;;;;;;4239327;27;20314;-52
2022/01/17 11:04:33;;;;;;;;;;;2.10;99.90;;;;;;4238778;27;19969;-52
2022/01/17 11:06:45;;;;;;;;;;;2.10;99.90;;;;;;4240191;27;19934;-52
2022/01/17 11:08:47;;;;;;;;;;;2.10;99.90;;;;;;4220390;28;20049;-52
2022/01/17 11:10:53;;;;;;;;;;;2.30;99.90;;;;;;4224408;28;19966;-53
2022/01/17 11:12:56;;;;;;;;;;;2.30;99.90;;;;;;4220429;28;19951;-52
2022/01/17 11:14:58;;;;;;;;;;;2.40;99.90;;;;;;4222564;28;20026;-52
2022/01/17 11:17:08;;;;;;;;;;;2.50;99.90;;;;;;4223141;28;19963;-54
2022/01/17 11:20:03;;;;;;;;;;;2.60;99.90;;;;;;4218012;28;20499;-52
2022/01/17 11:21:32;;;;;;;;;;;2.70;99.90;;;;;;4220239;28;19932;-53
2022/01/17 11:23:34;;;;;;;;;;;2.90;99.90;;;;;;4221046;28;19951;-52
2022/01/17 11:25:39;;;;;;;;;;;3.00;99.90;;;;;;4224323;28;19928;-53
2022/01/17 11:27:41;;;;;;;;;;;3.00;99.90;;;;;;4221090;28;19927;-52
2022/01/17 11:29:43;;;;;;;;;;;3.20;99.90;;;;;;4213300;28;20426;-54
2022/01/17 11:31:45;;;;;;;;;;;3.20;99.90;;;;;;4219968;28;19928;-53
2022/01/17 11:33:47;;;;;;;;;;;3.50;99.90;;;;;;4220667;28;20034;-53
2022/01/17 11:35:53;;;;;;;;;;;4.00;99.90;;;;;;4222978;28;19959;-53
2022/01/17 11:37:56;;;;;;;;;;;4.50;99.90;;;;;;4217302;28;19928;-54
2022/01/17 11:39:59;;;;;;;;;;;4.60;99.90;;;;;;4211903;28;19998;-52
2022/01/17 11:42:00;;;;;;;;;;;4.40;99.90;;;;;;4219751;28;20023;-53
2022/01/17 11:44:07;;;;;;;;;;;4.40;99.90;;;;;;4224024;28;19932;-53
2022/01/17 11:46:18;;;;;;;;;;;4.20;99.90;;;;;;4218793;28;19959;-53
2022/01/17 11:48:29;;;;;;;;;;;4.40;99.90;;;;;;4221794;28;19924;-53
2022/01/17 11:50:34;;;;;;;;;;;4.40;99.90;;;;;;4223643;28;20132;-53
2022/01/17 11:52:36;;;;;;;;;;;4.60;99.90;;;;;;4224478;28;19934;-53
2022/01/17 11:54:43;;;;;;;;;;;4.60;99.90;;;;;;4214795;28;20378;-54
2022/01/17 11:56:51;;;;;;;;;;;4.50;99.90;;;;;;4218262;28;20474;-53
2022/01/17 11:58:53;;;;;;;;;;;4.60;99.90;;;;;;4219850;28;19978;-54
2022/01/17 12:00:57;;;;;;;;;;;4.70;99.90;;;;;;4225411;28;20463;-53
2022/01/17 12:03:16;;;;;;;;;;;4.60;99.90;;;;;;4220760;28;19924;-53
2022/01/17 12:05:18;;;;;;;;;;;4.70;99.90;;;;;;4222954;28;19970;-54
2022/01/17 12:07:20;;;;;;;;;;;4.80;99.90;;;;;;4219854;28;20027;-52
2022/01/17 12:09:23;;;;;;;;;;;5.00;99.90;;;;;;4235758;27;20022;-53
2022/01/17 12:11:27;;;;;;;;;;;5.40;99.90;;;;;;4235937;27;19930;-54
2022/01/17 12:13:38;;;;;;;;;;;5.70;99.90;;;;;;4242873;27;19963;-54
2022/01/17 12:16:06;;;;;;;;;;;5.90;99.90;;;;;;4235297;27;20547;-53
2022/01/17 12:18:28;;;;;;;;;;;5.90;99.90;;;;;;4232875;27;19931;-53
2022/01/17 12:20:43;;;;;;;;;;;5.90;99.90;;;;;;4240899;27;19962;-53
2022/01/17 12:22:45;;;;;;;;;;;6.00;99.90;;;;;;4214150;28;19927;-54
2022/01/17 12:24:47;;;;;;;;;;;6.10;99.90;;;;;;4233897;27;20264;-52
2022/01/17 12:27:01;;;;;;;;;;;6.20;99.90;;;;;;4235196;27;19959;-53
2022/01/17 12:29:02;;;;;;;;;;;6.40;99.90;;;;;;4240799;27;19977;-54
2022/01/17 12:31:04;;;;;;;;;;;6.60;99.90;;;;;;4238151;27;19932;-53